sensor_id;sensor_type;location;lat;lon;timestamp;P1;durP1;ratioP1;P2;durP2;ratioP2
3141;SDS011;1581;51.568;6.998;2023-07-22T00:01:14;11.50;;;6.60;;
3141;SDS011;1581;51.568;6.998;2023-07-22T00:03:42;8.10;;;6.70;;
3141;SDS011;1581;51.568;6.998;2023-07-22T00:06:11;9.20;;;7.40;;
3141;SDS011;1581;51.568;6.998;2023-07-22T00:08:39;16.63;;;7.37;;
3141;SDS011;1581;51.568;6.998;2023-07-22T00:11:07;18.27;;;7.10;;
3141;SDS011;1581;51.568;6.998;2023-07-22T00:13:35;9.97;;;6.53;;
3141;SDS011;1581;51.568;6.998;2023-07-22T00:16:05;12.53;;;6.80;;
3141;SDS011;1581;51.568;6.998;2023-07-22T00:18:33;12.40;;;6.63;;
3141;SDS011;1581;51.568;6.998;2023-07-22T00:21:03;7.63;;;6.33;;
3141;SDS011;1581;51.568;6.998;2023-07-22T00:23:34;10.60;;;7.10;;
3141;SDS011;1581;51.568;6.998;2023-07-22T00:26:02;8.97;;;7.43;;
3141;SDS011;1581;51.568;6.998;2023-07-22T00:28:31;12.10;;;6.83;;
3141;SDS011;1581;51.568;6.998;2023-07-22T00:31:05;9.40;;;7.20;;
3141;SDS011;1581;51.568;6.998;2023-07-22T00:33:34;12.67;;;7.50;;
3141;SDS011;1581;51.568;6.998;2023-07-22T00:36:02;10.70;;;6.60;;
3141;SDS011;1581;51.568;6.998;2023-07-22T00:38:30;13.30;;;7.40;;
3141;SDS011;1581;51.568;6.998;2023-07-22T00:41:00;9.10;;;7.00;;
3141;SDS011;1581;51.568;6.998;2023-07-22T00:43:30;10.50;;;7.80;;
3141;SDS011;1581;51.568;6.998;2023-07-22T00:45:57;9.20;;;6.83;;
3141;SDS011;1581;51.568;6.998;2023-07-22T00:48:27;10.33;;;7.60;;
3141;SDS011;1581;51.568;6.998;2023-07-22T00:50:55;11.83;;;7.90;;
3141;SDS011;1581;51.568;6.998;2023-07-22T00:53:23;16.03;;;6.97;;
3141;SDS011;1581;51.568;6.998;2023-07-22T00:55:51;10.47;;;7.53;;
3141;SDS011;1581;51.568;6.998;2023-07-22T00:58:20;9.70;;;7.20;;
3141;SDS011;1581;51.568;6.998;2023-07-22T01:00:48;11.27;;;7.20;;
3141;SDS011;1581;51.568;6.998;2023-07-22T01:03:17;11.33;;;7.13;;
3141;SDS011;1581;51.568;6.998;2023-07-22T01:05:47;11.60;;;7.03;;
3141;SDS011;1581;51.568;6.998;2023-07-22T01:08:16;9.87;;;7.50;;
3141;SDS011;1581;51.568;6.998;2023-07-22T01:10:45;8.70;;;6.23;;
3141;SDS011;1581;51.568;6.998;2023-07-22T01:13:13;10.33;;;6.47;;
3141;SDS011;1581;51.568;6.998;2023-07-22T01:15:41;13.60;;;8.00;;
3141;SDS011;1581;51.568;6.998;2023-07-22T01:18:09;10.53;;;7.17;;
3141;SDS011;1581;51.568;6.998;2023-07-22T01:20:37;7.60;;;6.20;;
3141;SDS011;1581;51.568;6.998;2023-07-22T01:23:07;9.87;;;6.53;;
3141;SDS011;1581;51.568;6.998;2023-07-22T01:25:34;10.47;;;6.63;;
3141;SDS011;1581;51.568;6.998;2023-07-22T01:28:02;8.53;;;6.27;;
3141;SDS011;1581;51.568;6.998;2023-07-22T01:30:35;9.40;;;6.20;;
3141;SDS011;1581;51.568;6.998;2023-07-22T01:33:03;9.60;;;5.93;;
3141;SDS011;1581;51.568;6.998;2023-07-22T01:35:31;10.30;;;8.00;;
3141;SDS011;1581;51.568;6.998;2023-07-22T01:37:59;11.37;;;7.20;;
3141;SDS011;1581;51.568;6.998;2023-07-22T01:40:28;12.77;;;7.70;;
3141;SDS011;1581;51.568;6.998;2023-07-22T01:42:56;11.67;;;6.90;;
3141;SDS011;1581;51.568;6.998;2023-07-22T01:45:24;12.57;;;6.37;;
3141;SDS011;1581;51.568;6.998;2023-07-22T01:47:52;6.93;;;5.90;;
3141;SDS011;1581;51.568;6.998;2023-07-22T01:50:20;9.20;;;5.90;;
3141;SDS011;1581;51.568;6.998;2023-07-22T01:52:47;10.93;;;6.10;;
3141;SDS011;1581;51.568;6.998;2023-07-22T01:55:15;10.73;;;7.60;;
3141;SDS011;1581;51.568;6.998;2023-07-22T01:57:45;9.13;;;6.03;;
3141;SDS011;1581;51.568;6.998;2023-07-22T02:00:13;9.97;;;6.47;;
3141;SDS011;1581;51.568;6.998;2023-07-22T02:02:41;8.60;;;5.93;;
3141;SDS011;1581;51.568;6.998;2023-07-22T02:05:09;15.30;;;7.10;;
3141;SDS011;1581;51.568;6.998;2023-07-22T02:07:37;11.53;;;6.40;;
3141;SDS011;1581;51.568;6.998;2023-07-22T02:10:06;8.10;;;5.33;;
3141;SDS011;1581;51.568;6.998;2023-07-22T02:12:35;8.83;;;5.57;;
3141;SDS011;1581;51.568;6.998;2023-07-22T02:15:04;10.03;;;5.73;;
3141;SDS011;1581;51.568;6.998;2023-07-22T02:17:33;7.70;;;6.70;;
3141;SDS011;1581;51.568;6.998;2023-07-22T02:20:01;7.70;;;5.43;;
3141;SDS011;1581;51.568;6.998;2023-07-22T02:22:31;10.37;;;6.27;;
3141;SDS011;1581;51.568;6.998;2023-07-22T02:24:59;7.30;;;5.70;;
3141;SDS011;1581;51.568;6.998;2023-07-22T02:27:27;6.83;;;5.47;;
3141;SDS011;1581;51.568;6.998;2023-07-22T02:29:54;8.27;;;6.13;;
3141;SDS011;1581;51.568;6.998;2023-07-22T02:32:23;7.30;;;5.80;;
3141;SDS011;1581;51.568;6.998;2023-07-22T02:34:51;11.30;;;6.70;;
3141;SDS011;1581;51.568;6.998;2023-07-22T02:37:19;10.17;;;6.50;;
3141;SDS011;1581;51.568;6.998;2023-07-22T02:39:47;10.53;;;6.40;;
3141;SDS011;1581;51.568;6.998;2023-07-22T02:42:15;10.23;;;6.40;;
3141;SDS011;1581;51.568;6.998;2023-07-22T02:44:42;11.90;;;6.80;;
3141;SDS011;1581;51.568;6.998;2023-07-22T02:47:10;7.80;;;5.53;;
3141;SDS011;1581;51.568;6.998;2023-07-22T02:49:39;11.43;;;6.83;;
3141;SDS011;1581;51.568;6.998;2023-07-22T02:52:07;7.00;;;5.97;;
3141;SDS011;1581;51.568;6.998;2023-07-22T02:54:39;10.43;;;5.50;;
3141;SDS011;1581;51.568;6.998;2023-07-22T02:57:07;10.73;;;6.30;;
3141;SDS011;1581;51.568;6.998;2023-07-22T02:59:35;8.73;;;6.00;;
3141;SDS011;1581;51.568;6.998;2023-07-22T03:02:03;11.00;;;6.60;;
3141;SDS011;1581;51.568;6.998;2023-07-22T03:04:31;8.37;;;6.90;;
3141;SDS011;1581;51.568;6.998;2023-07-22T03:07:01;9.20;;;5.70;;
3141;SDS011;1581;51.568;6.998;2023-07-22T03:09:29;11.27;;;7.33;;
3141;SDS011;1581;51.568;6.998;2023-07-22T03:11:57;9.63;;;6.20;;
3141;SDS011;1581;51.568;6.998;2023-07-22T03:14:24;7.77;;;6.10;;
3141;SDS011;1581;51.568;6.998;2023-07-22T03:16:52;8.93;;;6.27;;
3141;SDS011;1581;51.568;6.998;2023-07-22T03:19:20;6.40;;;5.77;;
3141;SDS011;1581;51.568;6.998;2023-07-22T03:21:48;16.10;;;6.70;;
3141;SDS011;1581;51.568;6.998;2023-07-22T03:24:17;11.13;;;6.77;;
3141;SDS011;1581;51.568;6.998;2023-07-22T03:26:45;24.83;;;6.50;;
3141;SDS011;1581;51.568;6.998;2023-07-22T03:29:12;11.93;;;7.70;;
3141;SDS011;1581;51.568;6.998;2023-07-22T03:31:40;8.00;;;5.20;;
3141;SDS011;1581;51.568;6.998;2023-07-22T03:34:08;8.93;;;6.20;;
3141;SDS011;1581;51.568;6.998;2023-07-22T03:36:36;11.00;;;6.07;;
3141;SDS011;1581;51.568;6.998;2023-07-22T03:39:04;14.90;;;6.50;;
3141;SDS011;1581;51.568;6.998;2023-07-22T03:41:34;9.87;;;6.33;;
3141;SDS011;1581;51.568;6.998;2023-07-22T03:44:02;7.60;;;5.70;;
3141;SDS011;1581;51.568;6.998;2023-07-22T03:46:30;9.80;;;5.80;;
3141;SDS011;1581;51.568;6.998;2023-07-22T03:48:58;7.20;;;5.33;;
3141;SDS011;1581;51.568;6.998;2023-07-22T03:51:26;11.30;;;6.97;;
3141;SDS011;1581;51.568;6.998;2023-07-22T03:53:54;12.60;;;6.60;;
3141;SDS011;1581;51.568;6.998;2023-07-22T03:56:21;10.83;;;5.63;;
3141;SDS011;1581;51.568;6.998;2023-07-22T03:58:51;9.37;;;6.57;;
3141;SDS011;1581;51.568;6.998;2023-07-22T04:01:19;11.37;;;6.83;;
3141;SDS011;1581;51.568;6.998;2023-07-22T04:03:47;19.00;;;6.83;;
3141;SDS011;1581;51.568;6.998;2023-07-22T04:06:15;11.77;;;7.00;;
3141;SDS011;1581;51.568;6.998;2023-07-22T04:08:43;7.07;;;6.37;;
3141;SDS011;1581;51.568;6.998;2023-07-22T04:11:10;9.27;;;6.60;;
3141;SDS011;1581;51.568;6.998;2023-07-22T04:13:39;13.50;;;5.70;;
3141;SDS011;1581;51.568;6.998;2023-07-22T04:16:08;11.60;;;6.57;;
3141;SDS011;1581;51.568;6.998;2023-07-22T04:18:36;10.83;;;5.70;;
3141;SDS011;1581;51.568;6.998;2023-07-22T04:21:05;10.80;;;5.40;;
3141;SDS011;1581;51.568;6.998;2023-07-22T04:23:33;11.30;;;6.17;;
3141;SDS011;1581;51.568;6.998;2023-07-22T04:26:02;9.70;;;6.03;;
3141;SDS011;1581;51.568;6.998;2023-07-22T04:28:32;7.53;;;6.00;;
3141;SDS011;1581;51.568;6.998;2023-07-22T04:31:00;10.30;;;6.40;;
3141;SDS011;1581;51.568;6.998;2023-07-22T04:33:30;12.17;;;6.10;;
3141;SDS011;1581;51.568;6.998;2023-07-22T04:35:59;8.57;;;5.80;;
3141;SDS011;1581;51.568;6.998;2023-07-22T04:38:27;9.90;;;6.10;;
3141;SDS011;1581;51.568;6.998;2023-07-22T04:40:54;9.70;;;5.90;;
3141;SDS011;1581;51.568;6.998;2023-07-22T04:43:22;11.67;;;5.87;;
3141;SDS011;1581;51.568;6.998;2023-07-22T04:45:50;11.70;;;5.97;;
3141;SDS011;1581;51.568;6.998;2023-07-22T04:48:19;21.47;;;7.13;;
3141;SDS011;1581;51.568;6.998;2023-07-22T04:50:50;11.20;;;5.87;;
3141;SDS011;1581;51.568;6.998;2023-07-22T04:53:18;11.13;;;6.30;;
3141;SDS011;1581;51.568;6.998;2023-07-22T04:55:46;9.90;;;5.90;;
3141;SDS011;1581;51.568;6.998;2023-07-22T04:58:14;13.60;;;6.30;;
3141;SDS011;1581;51.568;6.998;2023-07-22T05:00:42;11.50;;;6.80;;
3141;SDS011;1581;51.568;6.998;2023-07-22T05:03:10;11.93;;;5.00;;
3141;SDS011;1581;51.568;6.998;2023-07-22T05:05:39;8.10;;;5.77;;
3141;SDS011;1581;51.568;6.998;2023-07-22T05:08:08;15.03;;;6.37;;
3141;SDS011;1581;51.568;6.998;2023-07-22T05:10:36;11.50;;;6.57;;
3141;SDS011;1581;51.568;6.998;2023-07-22T05:13:04;10.83;;;5.80;;
3141;SDS011;1581;51.568;6.998;2023-07-22T05:15:32;12.80;;;6.43;;
3141;SDS011;1581;51.568;6.998;2023-07-22T05:18:00;11.03;;;5.87;;
3141;SDS011;1581;51.568;6.998;2023-07-22T05:20:27;8.97;;;6.27;;
3141;SDS011;1581;51.568;6.998;2023-07-22T05:22:55;15.10;;;5.50;;
3141;SDS011;1581;51.568;6.998;2023-07-22T05:25:25;13.67;;;5.90;;
3141;SDS011;1581;51.568;6.998;2023-07-22T05:27:53;11.73;;;5.97;;
3141;SDS011;1581;51.568;6.998;2023-07-22T05:30:21;8.57;;;5.47;;
3141;SDS011;1581;51.568;6.998;2023-07-22T05:32:51;10.43;;;6.53;;
3141;SDS011;1581;51.568;6.998;2023-07-22T05:35:19;10.20;;;6.07;;
3141;SDS011;1581;51.568;6.998;2023-07-22T05:37:46;9.80;;;6.17;;
3141;SDS011;1581;51.568;6.998;2023-07-22T05:40:15;9.03;;;6.27;;
3141;SDS011;1581;51.568;6.998;2023-07-22T05:42:44;12.47;;;6.63;;
3141;SDS011;1581;51.568;6.998;2023-07-22T05:45:12;11.43;;;6.00;;
3141;SDS011;1581;51.568;6.998;2023-07-22T05:47:41;10.00;;;5.97;;
3141;SDS011;1581;51.568;6.998;2023-07-22T05:50:09;8.37;;;5.80;;
3141;SDS011;1581;51.568;6.998;2023-07-22T05:52:37;8.13;;;5.40;;
3141;SDS011;1581;51.568;6.998;2023-07-22T05:55:05;10.80;;;5.60;;
3141;SDS011;1581;51.568;6.998;2023-07-22T05:57:33;10.43;;;5.37;;
3141;SDS011;1581;51.568;6.998;2023-07-22T06:00:03;9.00;;;6.23;;
3141;SDS011;1581;51.568;6.998;2023-07-22T06:02:33;11.17;;;5.40;;
3141;SDS011;1581;51.568;6.998;2023-07-22T06:05:01;9.17;;;6.13;;
3141;SDS011;1581;51.568;6.998;2023-07-22T06:07:29;11.53;;;6.07;;
3141;SDS011;1581;51.568;6.998;2023-07-22T06:09:57;9.67;;;6.00;;
3141;SDS011;1581;51.568;6.998;2023-07-22T06:12:25;7.20;;;5.43;;
3141;SDS011;1581;51.568;6.998;2023-07-22T06:14:52;12.90;;;6.30;;
3141;SDS011;1581;51.568;6.998;2023-07-22T06:17:22;10.17;;;6.17;;
3141;SDS011;1581;51.568;6.998;2023-07-22T06:19:49;7.70;;;5.20;;
3141;SDS011;1581;51.568;6.998;2023-07-22T06:22:17;11.10;;;5.83;;
3141;SDS011;1581;51.568;6.998;2023-07-22T06:24:45;7.77;;;5.60;;
3141;SDS011;1581;51.568;6.998;2023-07-22T06:27:12;8.37;;;6.03;;
3141;SDS011;1581;51.568;6.998;2023-07-22T06:29:40;16.60;;;6.63;;
3141;SDS011;1581;51.568;6.998;2023-07-22T06:32:08;9.57;;;5.73;;
3141;SDS011;1581;51.568;6.998;2023-07-22T06:34:37;8.73;;;6.00;;
3141;SDS011;1581;51.568;6.998;2023-07-22T06:37:05;8.13;;;5.83;;
3141;SDS011;1581;51.568;6.998;2023-07-22T06:39:33;13.90;;;7.10;;
3141;SDS011;1581;51.568;6.998;2023-07-22T06:42:01;9.43;;;6.00;;
3141;SDS011;1581;51.568;6.998;2023-07-22T06:44:29;10.47;;;7.03;;
3141;SDS011;1581;51.568;6.998;2023-07-22T06:46:57;13.03;;;6.17;;
3141;SDS011;1581;51.568;6.998;2023-07-22T06:49:25;11.33;;;6.00;;
3141;SDS011;1581;51.568;6.998;2023-07-22T06:51:54;11.87;;;8.13;;
3141;SDS011;1581;51.568;6.998;2023-07-22T06:54:22;12.70;;;7.80;;
3141;SDS011;1581;51.568;6.998;2023-07-22T06:56:49;13.40;;;7.13;;
3141;SDS011;1581;51.568;6.998;2023-07-22T06:59:17;9.50;;;6.47;;
3141;SDS011;1581;51.568;6.998;2023-07-22T07:01:45;9.67;;;7.80;;
3141;SDS011;1581;51.568;6.998;2023-07-22T07:04:12;11.50;;;7.07;;
3141;SDS011;1581;51.568;6.998;2023-07-22T07:06:40;15.87;;;7.43;;
3141;SDS011;1581;51.568;6.998;2023-07-22T07:09:09;11.97;;;6.53;;
3141;SDS011;1581;51.568;6.998;2023-07-22T07:11:37;10.05;;;6.15;;
3141;SDS011;1581;51.568;6.998;2023-07-22T07:14:05;9.73;;;5.83;;
3141;SDS011;1581;51.568;6.998;2023-07-22T07:16:33;10.50;;;6.85;;
3141;SDS011;1581;51.568;6.998;2023-07-22T07:19:01;9.77;;;6.50;;
3141;SDS011;1581;51.568;6.998;2023-07-22T07:21:29;11.13;;;6.93;;
3141;SDS011;1581;51.568;6.998;2023-07-22T07:23:57;9.53;;;5.87;;
3141;SDS011;1581;51.568;6.998;2023-07-22T07:26:26;14.48;;;7.07;;
3141;SDS011;1581;51.568;6.998;2023-07-22T07:28:54;7.68;;;6.40;;
3141;SDS011;1581;51.568;6.998;2023-07-22T07:31:22;7.43;;;5.70;;
3141;SDS011;1581;51.568;6.998;2023-07-22T07:33:50;8.77;;;5.97;;
3141;SDS011;1581;51.568;6.998;2023-07-22T07:36:18;8.10;;;5.63;;
3141;SDS011;1581;51.568;6.998;2023-07-22T07:38:46;10.30;;;6.10;;
3141;SDS011;1581;51.568;6.998;2023-07-22T07:41:14;8.80;;;5.53;;
3141;SDS011;1581;51.568;6.998;2023-07-22T07:43:43;8.13;;;5.63;;
3141;SDS011;1581;51.568;6.998;2023-07-22T07:46:14;12.40;;;5.43;;
3141;SDS011;1581;51.568;6.998;2023-07-22T07:48:45;8.60;;;6.00;;
3141;SDS011;1581;51.568;6.998;2023-07-22T07:51:14;6.70;;;5.43;;
3141;SDS011;1581;51.568;6.998;2023-07-22T07:53:44;9.25;;;6.00;;
3141;SDS011;1581;51.568;6.998;2023-07-22T07:56:13;9.38;;;5.85;;
3141;SDS011;1581;51.568;6.998;2023-07-22T07:58:43;8.27;;;5.78;;
3141;SDS011;1581;51.568;6.998;2023-07-22T08:01:13;8.00;;;5.78;;
3141;SDS011;1581;51.568;6.998;2023-07-22T08:03:41;11.70;;;5.95;;
3141;SDS011;1581;51.568;6.998;2023-07-22T08:06:11;10.80;;;6.68;;
3141;SDS011;1581;51.568;6.998;2023-07-22T08:08:39;10.95;;;5.80;;
3141;SDS011;1581;51.568;6.998;2023-07-22T08:11:08;7.80;;;5.68;;
3141;SDS011;1581;51.568;6.998;2023-07-22T08:13:38;10.98;;;6.63;;
3141;SDS011;1581;51.568;6.998;2023-07-22T08:16:09;9.75;;;6.13;;
3141;SDS011;1581;51.568;6.998;2023-07-22T08:18:38;7.85;;;6.07;;
3141;SDS011;1581;51.568;6.998;2023-07-22T08:21:06;7.97;;;6.95;;
3141;SDS011;1581;51.568;6.998;2023-07-22T08:23:34;9.80;;;5.82;;
3141;SDS011;1581;51.568;6.998;2023-07-22T08:26:02;7.78;;;5.32;;
3141;SDS011;1581;51.568;6.998;2023-07-22T08:28:31;14.48;;;6.45;;
3141;SDS011;1581;51.568;6.998;2023-07-22T08:30:59;8.43;;;5.93;;
3141;SDS011;1581;51.568;6.998;2023-07-22T08:33:28;10.80;;;6.57;;
3141;SDS011;1581;51.568;6.998;2023-07-22T08:35:57;7.00;;;5.97;;
3141;SDS011;1581;51.568;6.998;2023-07-22T08:38:24;8.35;;;5.35;;
3141;SDS011;1581;51.568;6.998;2023-07-22T08:40:52;7.78;;;5.72;;
3141;SDS011;1581;51.568;6.998;2023-07-22T08:43:20;8.57;;;5.53;;
3141;SDS011;1581;51.568;6.998;2023-07-22T08:45:49;7.32;;;5.70;;
3141;SDS011;1581;51.568;6.998;2023-07-22T08:48:21;7.40;;;5.30;;
3141;SDS011;1581;51.568;6.998;2023-07-22T08:50:54;8.88;;;5.43;;
3141;SDS011;1581;51.568;6.998;2023-07-22T08:53:25;9.05;;;6.15;;
3141;SDS011;1581;51.568;6.998;2023-07-22T08:55:53;5.47;;;4.75;;
3141;SDS011;1581;51.568;6.998;2023-07-22T08:58:22;8.50;;;5.97;;
3141;SDS011;1581;51.568;6.998;2023-07-22T09:00:51;6.88;;;4.85;;
3141;SDS011;1581;51.568;6.998;2023-07-22T09:03:20;7.07;;;5.85;;
3141;SDS011;1581;51.568;6.998;2023-07-22T09:05:48;11.27;;;6.80;;
3141;SDS011;1581;51.568;6.998;2023-07-22T09:08:18;8.50;;;6.20;;
3141;SDS011;1581;51.568;6.998;2023-07-22T09:10:46;8.07;;;5.60;;
3141;SDS011;1581;51.568;6.998;2023-07-22T09:13:14;9.80;;;5.50;;
3141;SDS011;1581;51.568;6.998;2023-07-22T09:15:45;16.17;;;5.13;;
3141;SDS011;1581;51.568;6.998;2023-07-22T09:18:14;8.57;;;5.57;;
3141;SDS011;1581;51.568;6.998;2023-07-22T09:20:43;8.18;;;4.45;;
3141;SDS011;1581;51.568;6.998;2023-07-22T09:23:11;9.88;;;5.22;;
3141;SDS011;1581;51.568;6.998;2023-07-22T09:25:42;6.63;;;5.32;;
3141;SDS011;1581;51.568;6.998;2023-07-22T09:28:10;9.85;;;5.25;;
3141;SDS011;1581;51.568;6.998;2023-07-22T09:30:39;7.55;;;5.05;;
3141;SDS011;1581;51.568;6.998;2023-07-22T09:33:07;7.63;;;4.80;;
3141;SDS011;1581;51.568;6.998;2023-07-22T09:35:48;11.40;;;5.90;;
3141;SDS011;1581;51.568;6.998;2023-07-22T09:38:22;7.40;;;4.57;;
3141;SDS011;1581;51.568;6.998;2023-07-22T09:40:52;6.50;;;5.72;;
3141;SDS011;1581;51.568;6.998;2023-07-22T09:43:21;10.55;;;6.28;;
3141;SDS011;1581;51.568;6.998;2023-07-22T09:45:50;6.05;;;4.97;;
3141;SDS011;1581;51.568;6.998;2023-07-22T09:48:20;7.45;;;4.80;;
3141;SDS011;1581;51.568;6.998;2023-07-22T09:50:55;4.07;;;3.72;;
3141;SDS011;1581;51.568;6.998;2023-07-22T09:53:23;5.85;;;3.78;;
3141;SDS011;1581;51.568;6.998;2023-07-22T09:55:53;3.65;;;3.22;;
3141;SDS011;1581;51.568;6.998;2023-07-22T09:58:22;5.97;;;4.25;;
3141;SDS011;1581;51.568;6.998;2023-07-22T10:00:54;3.42;;;3.13;;
3141;SDS011;1581;51.568;6.998;2023-07-22T10:03:22;4.10;;;2.95;;
3141;SDS011;1581;51.568;6.998;2023-07-22T10:05:54;4.15;;;3.17;;
3141;SDS011;1581;51.568;6.998;2023-07-22T10:08:26;5.90;;;3.63;;
3141;SDS011;1581;51.568;6.998;2023-07-22T10:10:58;4.45;;;3.42;;
3141;SDS011;1581;51.568;6.998;2023-07-22T10:13:29;3.08;;;2.78;;
3141;SDS011;1581;51.568;6.998;2023-07-22T10:15:57;3.22;;;2.92;;
3141;SDS011;1581;51.568;6.998;2023-07-22T10:18:27;5.32;;;2.92;;
3141;SDS011;1581;51.568;6.998;2023-07-22T10:20:57;3.88;;;2.80;;
3141;SDS011;1581;51.568;6.998;2023-07-22T10:23:26;4.43;;;3.33;;
3141;SDS011;1581;51.568;6.998;2023-07-22T10:25:54;4.90;;;2.85;;
3141;SDS011;1581;51.568;6.998;2023-07-22T10:28:25;4.60;;;2.85;;
3141;SDS011;1581;51.568;6.998;2023-07-22T10:30:54;2.63;;;2.42;;
3141;SDS011;1581;51.568;6.998;2023-07-22T10:33:24;4.20;;;2.58;;
3141;SDS011;1581;51.568;6.998;2023-07-22T10:36:02;4.30;;;2.78;;
3141;SDS011;1581;51.568;6.998;2023-07-22T10:38:32;5.60;;;3.53;;
3141;SDS011;1581;51.568;6.998;2023-07-22T10:41:04;11.82;;;3.35;;
3141;SDS011;1581;51.568;6.998;2023-07-22T10:43:40;3.78;;;3.22;;
3141;SDS011;1581;51.568;6.998;2023-07-22T10:46:09;3.42;;;3.13;;
3141;SDS011;1581;51.568;6.998;2023-07-22T10:48:39;4.65;;;2.90;;
3141;SDS011;1581;51.568;6.998;2023-07-22T10:51:09;5.88;;;2.40;;
3141;SDS011;1581;51.568;6.998;2023-07-22T10:53:40;8.30;;;3.55;;
3141;SDS011;1581;51.568;6.998;2023-07-22T10:56:13;3.28;;;2.53;;
3141;SDS011;1581;51.568;6.998;2023-07-22T10:58:59;5.75;;;3.88;;
3141;SDS011;1581;51.568;6.998;2023-07-22T11:01:32;4.43;;;2.78;;
3141;SDS011;1581;51.568;6.998;2023-07-22T11:04:12;4.38;;;3.15;;
3141;SDS011;1581;51.568;6.998;2023-07-22T11:06:55;4.60;;;2.78;;
3141;SDS011;1581;51.568;6.998;2023-07-22T11:09:34;2.83;;;2.63;;
3141;SDS011;1581;51.568;6.998;2023-07-22T11:12:08;3.97;;;2.42;;
3141;SDS011;1581;51.568;6.998;2023-07-22T11:14:44;3.92;;;2.60;;
3141;SDS011;1581;51.568;6.998;2023-07-22T11:17:15;5.43;;;3.40;;
3141;SDS011;1581;51.568;6.998;2023-07-22T11:19:44;7.70;;;2.55;;
3141;SDS011;1581;51.568;6.998;2023-07-22T11:22:11;2.63;;;2.42;;
3141;SDS011;1581;51.568;6.998;2023-07-22T11:24:40;3.58;;;2.45;;
3141;SDS011;1581;51.568;6.998;2023-07-22T11:27:07;4.72;;;3.03;;
3141;SDS011;1581;51.568;6.998;2023-07-22T11:29:36;5.80;;;2.40;;
3141;SDS011;1581;51.568;6.998;2023-07-22T11:32:08;2.00;;;1.90;;
3141;SDS011;1581;51.568;6.998;2023-07-22T11:34:43;2.55;;;2.35;;
3141;SDS011;1581;51.568;6.998;2023-07-22T11:37:11;9.07;;;2.47;;
3141;SDS011;1581;51.568;6.998;2023-07-22T11:39:42;4.15;;;2.22;;
3141;SDS011;1581;51.568;6.998;2023-07-22T11:42:10;2.42;;;2.22;;
3141;SDS011;1581;51.568;6.998;2023-07-22T11:44:38;2.83;;;2.40;;
3141;SDS011;1581;51.568;6.998;2023-07-22T11:47:08;2.25;;;2.05;;
3141;SDS011;1581;51.568;6.998;2023-07-22T11:49:37;2.38;;;2.08;;
3141;SDS011;1581;51.568;6.998;2023-07-22T11:52:09;3.17;;;2.72;;
3141;SDS011;1581;51.568;6.998;2023-07-22T11:54:39;2.95;;;2.10;;
3141;SDS011;1581;51.568;6.998;2023-07-22T11:57:12;2.25;;;2.05;;
3141;SDS011;1581;51.568;6.998;2023-07-22T11:59:43;2.15;;;1.67;;
3141;SDS011;1581;51.568;6.998;2023-07-22T12:02:15;3.28;;;2.83;;
3141;SDS011;1581;51.568;6.998;2023-07-22T12:04:51;4.40;;;2.00;;
3141;SDS011;1581;51.568;6.998;2023-07-22T12:07:23;2.20;;;1.70;;
3141;SDS011;1581;51.568;6.998;2023-07-22T12:09:54;4.50;;;2.28;;
3141;SDS011;1581;51.568;6.998;2023-07-22T12:12:31;4.00;;;2.38;;
3141;SDS011;1581;51.568;6.998;2023-07-22T12:15:01;3.08;;;1.95;;
3141;SDS011;1581;51.568;6.998;2023-07-22T12:17:44;2.70;;;2.40;;
3141;SDS011;1581;51.568;6.998;2023-07-22T12:20:13;2.72;;;2.50;;
3141;SDS011;1581;51.568;6.998;2023-07-22T12:22:42;4.57;;;2.22;;
3141;SDS011;1581;51.568;6.998;2023-07-22T12:25:10;7.85;;;2.38;;
3141;SDS011;1581;51.568;6.998;2023-07-22T12:27:38;8.20;;;2.30;;
3141;SDS011;1581;51.568;6.998;2023-07-22T12:30:06;2.85;;;1.90;;
3141;SDS011;1581;51.568;6.998;2023-07-22T12:32:36;2.38;;;1.83;;
3141;SDS011;1581;51.568;6.998;2023-07-22T12:35:07;2.95;;;2.05;;
3141;SDS011;1581;51.568;6.998;2023-07-22T12:37:36;1.80;;;1.67;;
3141;SDS011;1581;51.568;6.998;2023-07-22T12:40:05;2.10;;;1.90;;
3141;SDS011;1581;51.568;6.998;2023-07-22T12:42:37;2.30;;;1.52;;
3141;SDS011;1581;51.568;6.998;2023-07-22T12:45:06;3.42;;;1.55;;
3141;SDS011;1581;51.568;6.998;2023-07-22T12:47:35;1.85;;;1.70;;
3141;SDS011;1581;51.568;6.998;2023-07-22T12:50:04;1.95;;;1.35;;
3141;SDS011;1581;51.568;6.998;2023-07-22T12:52:35;2.67;;;1.83;;
3141;SDS011;1581;51.568;6.998;2023-07-22T12:55:04;1.98;;;1.75;;
3141;SDS011;1581;51.568;6.998;2023-07-22T12:57:32;2.22;;;1.63;;
3141;SDS011;1581;51.568;6.998;2023-07-22T13:00:00;8.68;;;1.88;;
3141;SDS011;1581;51.568;6.998;2023-07-22T13:02:30;1.80;;;1.70;;
3141;SDS011;1581;51.568;6.998;2023-07-22T13:04:57;1.98;;;1.73;;
3141;SDS011;1581;51.568;6.998;2023-07-22T13:07:26;2.25;;;1.83;;
3141;SDS011;1581;51.568;6.998;2023-07-22T13:09:54;1.88;;;1.70;;
3141;SDS011;1581;51.568;6.998;2023-07-22T13:12:23;1.65;;;1.55;;
3141;SDS011;1581;51.568;6.998;2023-07-22T13:14:50;3.33;;;2.10;;
3141;SDS011;1581;51.568;6.998;2023-07-22T13:17:18;2.45;;;2.25;;
3141;SDS011;1581;51.568;6.998;2023-07-22T13:19:46;2.47;;;2.28;;
3141;SDS011;1581;51.568;6.998;2023-07-22T13:22:14;2.08;;;1.75;;
3141;SDS011;1581;51.568;6.998;2023-07-22T13:24:44;9.27;;;1.98;;
3141;SDS011;1581;51.568;6.998;2023-07-22T13:27:11;2.53;;;1.67;;
3141;SDS011;1581;51.568;6.998;2023-07-22T13:29:40;152.02;;;10.35;;
3141;SDS011;1581;51.568;6.998;2023-07-22T13:32:08;1.80;;;1.70;;
3141;SDS011;1581;51.568;6.998;2023-07-22T13:34:36;2.25;;;2.05;;
3141;SDS011;1581;51.568;6.998;2023-07-22T13:37:04;4.65;;;1.92;;
3141;SDS011;1581;51.568;6.998;2023-07-22T13:39:32;2.20;;;2.00;;
3141;SDS011;1581;51.568;6.998;2023-07-22T13:42:01;1.70;;;1.60;;
3141;SDS011;1581;51.568;6.998;2023-07-22T13:44:29;7.13;;;1.83;;
3141;SDS011;1581;51.568;6.998;2023-07-22T13:46:57;1.70;;;1.60;;
3141;SDS011;1581;51.568;6.998;2023-07-22T13:49:25;1.65;;;1.55;;
3141;SDS011;1581;51.568;6.998;2023-07-22T13:51:53;2.08;;;1.60;;
3141;SDS011;1581;51.568;6.998;2023-07-22T13:54:21;6.43;;;1.88;;
3141;SDS011;1581;51.568;6.998;2023-07-22T13:56:49;2.40;;;2.10;;
3141;SDS011;1581;51.568;6.998;2023-07-22T13:59:18;4.03;;;2.42;;
3141;SDS011;1581;51.568;6.998;2023-07-22T14:01:46;1.70;;;1.60;;
3141;SDS011;1581;51.568;6.998;2023-07-22T14:04:14;3.55;;;2.05;;
3141;SDS011;1581;51.568;6.998;2023-07-22T14:06:42;2.00;;;1.83;;
3141;SDS011;1581;51.568;6.998;2023-07-22T14:09:10;2.30;;;1.77;;
3141;SDS011;1581;51.568;6.998;2023-07-22T14:11:38;3.42;;;1.95;;
3141;SDS011;1581;51.568;6.998;2023-07-22T14:14:06;1.92;;;1.83;;
3141;SDS011;1581;51.568;6.998;2023-07-22T14:16:35;1.92;;;1.83;;
3141;SDS011;1581;51.568;6.998;2023-07-22T14:19:03;4.90;;;1.92;;
3141;SDS011;1581;51.568;6.998;2023-07-22T14:21:32;2.35;;;1.95;;
3141;SDS011;1581;51.568;6.998;2023-07-22T14:24:00;1.92;;;1.83;;
3141;SDS011;1581;51.568;6.998;2023-07-22T14:26:28;1.80;;;1.60;;
3141;SDS011;1581;51.568;6.998;2023-07-22T14:28:56;1.85;;;1.75;;
3141;SDS011;1581;51.568;6.998;2023-07-22T14:31:24;2.30;;;2.10;;
3141;SDS011;1581;51.568;6.998;2023-07-22T14:33:53;3.75;;;2.00;;
3141;SDS011;1581;51.568;6.998;2023-07-22T14:36:21;2.60;;;1.98;;
3141;SDS011;1581;51.568;6.998;2023-07-22T14:38:49;2.38;;;2.00;;
3141;SDS011;1581;51.568;6.998;2023-07-22T14:41:18;2.95;;;1.90;;
3141;SDS011;1581;51.568;6.998;2023-07-22T14:43:46;2.88;;;2.00;;
3141;SDS011;1581;51.568;6.998;2023-07-22T14:46:14;3.38;;;2.28;;
3141;SDS011;1581;51.568;6.998;2023-07-22T14:48:41;2.10;;;2.00;;
3141;SDS011;1581;51.568;6.998;2023-07-22T14:51:12;1.95;;;1.77;;
3141;SDS011;1581;51.568;6.998;2023-07-22T14:53:40;1.80;;;1.70;;
3141;SDS011;1581;51.568;6.998;2023-07-22T14:56:08;1.95;;;1.85;;
3141;SDS011;1581;51.568;6.998;2023-07-22T14:58:36;2.47;;;2.00;;
3141;SDS011;1581;51.568;6.998;2023-07-22T15:01:04;1.90;;;1.77;;
3141;SDS011;1581;51.568;6.998;2023-07-22T15:03:34;1.92;;;1.70;;
3141;SDS011;1581;51.568;6.998;2023-07-22T15:06:03;1.73;;;1.63;;
3141;SDS011;1581;51.568;6.998;2023-07-22T15:08:33;1.70;;;1.52;;
3141;SDS011;1581;51.568;6.998;2023-07-22T15:11:01;2.95;;;1.90;;
3141;SDS011;1581;51.568;6.998;2023-07-22T15:13:29;1.80;;;1.70;;
3141;SDS011;1581;51.568;6.998;2023-07-22T15:15:56;2.40;;;1.58;;
3141;SDS011;1581;51.568;6.998;2023-07-22T15:18:24;1.90;;;1.50;;
3141;SDS011;1581;51.568;6.998;2023-07-22T15:20:52;4.18;;;2.38;;